createdAt,value
2023-07-22T00:00:00.947Z,27.22
2023-07-22T00:02:29.015Z,27.03
2023-07-22T00:04:57.143Z,27.24
2023-07-22T00:07:25.159Z,27.15
2023-07-22T00:09:53.183Z,26.92
2023-07-22T00:12:21.200Z,26.74
2023-07-22T00:14:49.186Z,26.73
2023-07-22T00:17:18.751Z,26.63
2023-07-22T00:19:46.837Z,26.55
2023-07-22T00:22:14.822Z,26.43
2023-07-22T00:24:42.871Z,26.32
2023-07-22T00:27:11.569Z,26.35
2023-07-22T00:29:39.593Z,26.23
2023-07-22T00:32:09.924Z,26.17
2023-07-22T00:34:39.329Z,26.17
2023-07-22T00:37:07.426Z,26.12
2023-07-22T00:39:35.359Z,26.04
2023-07-22T00:42:03.312Z,25.91
2023-07-22T00:44:31.677Z,25.99
2023-07-22T00:47:00.437Z,25.87
2023-07-22T00:49:29.964Z,25.89
2023-07-22T00:52:02.855Z,25.81
2023-07-22T00:54:32.073Z,25.90
2023-07-22T00:57:00.405Z,25.85
2023-07-22T00:59:29.191Z,25.92
2023-07-22T01:01:57.258Z,25.89
2023-07-22T01:04:26.433Z,25.78
2023-07-22T01:06:55.324Z,25.68
2023-07-22T01:09:24.693Z,25.58
2023-07-22T01:11:52.666Z,25.45
2023-07-22T01:14:20.640Z,25.70
2023-07-22T01:16:48.837Z,25.57
2023-07-22T01:19:20.006Z,25.44
2023-07-22T01:21:50.361Z,25.37
2023-07-22T01:24:20.104Z,25.33
2023-07-22T01:26:49.017Z,25.43
2023-07-22T01:29:17.059Z,25.42
2023-07-22T01:31:49.317Z,25.12
2023-07-22T01:34:18.168Z,25.30
2023-07-22T01:36:48.608Z,25.22
2023-07-22T01:39:16.944Z,25.25
2023-07-22T01:41:46.676Z,25.25
2023-07-22T01:44:14.704Z,25.28
2023-07-22T01:46:43.274Z,25.24
2023-07-22T01:49:13.792Z,25.21
2023-07-22T01:51:42.561Z,25.29
2023-07-22T01:54:11.463Z,25.33
2023-07-22T01:56:39.937Z,25.27
2023-07-22T01:59:11.323Z,25.20
2023-07-22T02:01:39.833Z,25.13
2023-07-22T02:04:08.102Z,25.04
2023-07-22T02:06:36.572Z,24.94
2023-07-22T02:09:09.730Z,24.95
2023-07-22T02:11:38.050Z,24.85
2023-07-22T02:14:08.340Z,24.88
2023-07-22T02:16:38.974Z,24.77
2023-07-22T02:19:07.669Z,24.74
2023-07-22T02:21:35.776Z,25.07
2023-07-22T02:24:03.817Z,25.02
2023-07-22T02:26:31.921Z,24.98
2023-07-22T02:28:59.930Z,24.91
2023-07-22T02:31:28.059Z,24.78
2023-07-22T02:33:57.493Z,24.88
2023-07-22T02:36:25.775Z,24.87
2023-07-22T02:38:54.150Z,24.79
2023-07-22T02:41:22.975Z,24.72
2023-07-22T02:43:51.165Z,24.69
2023-07-22T02:46:19.306Z,24.72
2023-07-22T02:48:47.475Z,24.74
2023-07-22T02:51:16.881Z,24.65
2023-07-22T02:53:45.815Z,24.60
2023-07-22T02:56:14.239Z,24.53
2023-07-22T02:58:43.103Z,24.41
2023-07-22T03:01:11.592Z,24.38
2023-07-22T03:03:41.170Z,24.38
2023-07-22T03:06:10.928Z,24.32
2023-07-22T03:08:40.414Z,24.38
2023-07-22T03:11:08.561Z,24.11
2023-07-22T03:13:36.637Z,24.36
2023-07-22T03:16:05.933Z,24.36
2023-07-22T03:18:34.147Z,23.67
2023-07-22T03:21:02.235Z,24.55
2023-07-22T03:23:30.345Z,24.53
2023-07-22T03:25:59.718Z,24.46
2023-07-22T03:28:28.084Z,24.42
2023-07-22T03:30:56.152Z,24.24
2023-07-22T03:33:24.208Z,24.55
2023-07-22T03:35:52.285Z,24.60
2023-07-22T03:38:20.332Z,24.64
2023-07-22T03:40:48.699Z,24.71
2023-07-22T03:43:18.436Z,24.81
2023-07-22T03:45:46.573Z,25.00
2023-07-22T03:48:14.764Z,25.00
2023-07-22T03:50:42.830Z,25.16
2023-07-22T03:53:10.862Z,25.10
2023-07-22T03:55:38.882Z,25.22
2023-07-22T03:58:06.832Z,25.25
2023-07-22T04:00:36.281Z,25.21
2023-07-22T04:03:04.653Z,24.87
2023-07-22T04:05:32.791Z,25.02
2023-07-22T04:08:00.783Z,25.09
2023-07-22T04:10:28.728Z,24.88
2023-07-22T04:12:56.801Z,24.93
2023-07-22T04:15:24.924Z,24.87
2023-07-22T04:17:55.155Z,25.06
2023-07-22T04:20:25.495Z,25.04
2023-07-22T04:22:53.492Z,25.10
2023-07-22T04:25:21.624Z,25.18
2023-07-22T04:27:49.809Z,25.38
2023-07-22T04:30:21.801Z,25.30
2023-07-22T04:32:50.487Z,25.36
2023-07-22T04:35:20.175Z,25.56
2023-07-22T04:37:48.627Z,25.62
2023-07-22T04:40:19.458Z,25.58
2023-07-22T04:42:47.708Z,25.80
2023-07-22T04:45:15.797Z,25.90
2023-07-22T04:47:45.690Z,25.98
2023-07-22T04:50:14.012Z,25.99
2023-07-22T04:52:44.795Z,26.04
2023-07-22T04:55:13.310Z,26.03
2023-07-22T04:57:42.437Z,26.37
2023-07-22T05:00:13.253Z,25.95
2023-07-22T05:02:41.467Z,26.64
2023-07-22T05:05:10.721Z,26.95
2023-07-22T05:07:38.785Z,27.39
2023-07-22T05:10:13.338Z,27.62
2023-07-22T05:12:41.783Z,27.72
2023-07-22T05:15:12.202Z,27.83
2023-07-22T05:17:40.594Z,27.89
2023-07-22T05:20:11.279Z,27.85
2023-07-22T05:22:39.650Z,28.36
2023-07-22T05:25:10.848Z,28.04
2023-07-22T05:27:39.325Z,28.88
2023-07-22T05:30:16.084Z,28.78
2023-07-22T05:32:48.418Z,29.33
2023-07-22T05:35:16.495Z,29.94
2023-07-22T05:37:44.433Z,30.67
2023-07-22T05:40:14.101Z,31.23
2023-07-22T05:42:42.385Z,31.64
2023-07-22T05:45:14.876Z,31.97
2023-07-22T05:47:43.079Z,31.84
2023-07-22T05:50:11.783Z,31.54
2023-07-22T05:52:40.325Z,31.10
2023-07-22T05:55:08.814Z,31.10
2023-07-22T05:57:38.612Z,31.52
2023-07-22T06:00:09.981Z,31.75
2023-07-22T06:02:38.649Z,31.99
2023-07-22T06:05:07.254Z,31.52
2023-07-22T06:07:35.439Z,31.59
2023-07-22T06:10:03.952Z,32.18
2023-07-22T06:12:32.270Z,32.42
2023-07-22T06:15:02.162Z,32.46
2023-07-22T06:17:30.249Z,32.58
2023-07-22T06:19:58.617Z,32.66
2023-07-22T06:22:26.692Z,32.54
2023-07-22T06:24:54.869Z,33.60
2023-07-22T06:27:23.251Z,33.23
2023-07-22T06:29:51.279Z,32.91
2023-07-22T06:32:20.858Z,33.14
2023-07-22T06:34:48.880Z,33.11
2023-07-22T06:37:16.893Z,32.92
2023-07-22T06:39:44.921Z,32.71
2023-07-22T06:42:12.853Z,33.09
2023-07-22T06:44:41.204Z,33.19
2023-07-22T06:47:09.431Z,33.55
2023-07-22T06:49:38.978Z,33.83
2023-07-22T06:52:08.537Z,35.09
2023-07-22T06:54:37.287Z,34.43
2023-07-22T06:57:07.391Z,34.13
2023-07-22T06:59:35.486Z,34.07
2023-07-22T07:02:03.533Z,33.93
2023-07-22T07:04:31.618Z,34.23
2023-07-22T07:07:01.444Z,34.46
2023-07-22T07:09:47.868Z,35.01
2023-07-22T07:12:15.962Z,35.49
2023-07-22T07:14:44.451Z,35.37
2023-07-22T07:17:12.610Z,35.35
2023-07-22T07:19:40.648Z,35.33
2023-07-22T07:22:10.338Z,35.00
2023-07-22T07:24:38.532Z,34.83
2023-07-22T07:27:07.340Z,35.08
2023-07-22T07:29:51.942Z,34.91
2023-07-22T07:32:21.680Z,35.03
2023-07-22T07:34:49.858Z,35.72
2023-07-22T07:37:19.438Z,35.71
2023-07-22T07:39:47.578Z,36.14
2023-07-22T07:42:15.616Z,35.21
2023-07-22T07:44:44.790Z,35.76
2023-07-22T07:47:12.885Z,35.63
2023-07-22T07:49:41.750Z,36.29
2023-07-22T07:52:09.894Z,35.53
2023-07-22T07:54:39.409Z,35.80
2023-07-22T07:57:08.538Z,36.33
2023-07-22T07:59:39.390Z,35.59
2023-07-22T08:02:10.851Z,35.69
2023-07-22T08:04:38.915Z,36.88
2023-07-22T08:07:09.025Z,36.94
2023-07-22T08:09:37.431Z,36.96
2023-07-22T08:12:07.572Z,36.58
2023-07-22T08:14:35.841Z,37.00
2023-07-22T08:17:05.129Z,37.70
2023-07-22T08:19:33.267Z,37.59
2023-07-22T08:22:01.722Z,37.12
2023-07-22T08:24:29.857Z,37.15
2023-07-22T08:26:57.952Z,36.85
2023-07-22T08:29:27.815Z,37.34
2023-07-22T08:31:55.922Z,37.64
2023-07-22T08:34:24.127Z,37.42
2023-07-22T08:36:53.871Z,37.60
2023-07-22T08:39:21.881Z,37.25
2023-07-22T08:41:51.382Z,37.79
2023-07-22T08:44:24.801Z,37.88
2023-07-22T08:46:58.532Z,36.64
2023-07-22T08:49:27.923Z,37.61
2023-07-22T08:51:57.992Z,37.81
2023-07-22T08:54:26.449Z,38.06
2023-07-22T08:56:55.906Z,37.57
2023-07-22T08:59:24.340Z,37.94
2023-07-22T09:01:55.098Z,38.24
2023-07-22T09:04:23.227Z,37.44
2023-07-22T09:06:51.969Z,37.59
2023-07-22T09:09:20.397Z,37.31
2023-07-22T09:11:49.510Z,38.07
2023-07-22T09:14:35.821Z,38.13
2023-07-22T09:17:07.481Z,38.45
2023-07-22T09:19:35.511Z,38.01
2023-07-22T09:22:03.860Z,38.52
2023-07-22T09:24:31.964Z,38.45
2023-07-22T09:27:01.724Z,38.76
2023-07-22T09:29:37.538Z,38.20
2023-07-22T09:32:07.738Z,37.76
2023-07-22T09:34:35.800Z,38.17
2023-07-22T09:37:05.046Z,39.00
2023-07-22T09:39:33.465Z,38.60
2023-07-22T09:42:03.230Z,38.66
2023-07-22T09:44:34.115Z,38.40
2023-07-22T09:47:09.077Z,38.73
2023-07-22T09:49:42.675Z,39.40
2023-07-22T09:52:14.683Z,39.73
2023-07-22T09:54:50.011Z,39.48
2023-07-22T09:57:19.058Z,39.46
2023-07-22T09:59:50.017Z,39.92
2023-07-22T10:02:21.451Z,40.15
2023-07-22T10:04:53.437Z,39.31
2023-07-22T10:07:22.920Z,39.58
2023-07-22T10:09:51.899Z,39.43
2023-07-22T10:12:19.991Z,39.64
2023-07-22T10:14:48.831Z,40.21
2023-07-22T10:17:18.075Z,40.17
2023-07-22T10:19:47.797Z,40.71
2023-07-22T10:22:16.406Z,41.12
2023-07-22T10:24:47.705Z,41.18
2023-07-22T10:27:19.084Z,40.47
2023-07-22T10:29:48.187Z,40.61
2023-07-22T10:32:18.375Z,41.33
2023-07-22T10:34:47.821Z,41.38
2023-07-22T10:37:15.923Z,42.01
2023-07-22T10:39:43.980Z,42.30
2023-07-22T10:42:25.739Z,41.85
2023-07-22T10:44:54.241Z,41.65
2023-07-22T10:47:34.251Z,40.74
2023-07-22T10:50:15.752Z,40.58
2023-07-22T10:52:45.998Z,41.30
2023-07-22T10:55:18.646Z,40.58
2023-07-22T10:57:54.379Z,41.00
2023-07-22T11:00:23.411Z,41.56
2023-07-22T11:03:13.771Z,41.82
2023-07-22T11:05:57.207Z,41.22
2023-07-22T11:08:39.011Z,41.22
2023-07-22T11:11:07.462Z,41.81
2023-07-22T11:13:40.757Z,41.57
2023-07-22T11:16:13.208Z,41.26
2023-07-22T11:18:42.459Z,41.12
2023-07-22T11:21:12.497Z,41.46
2023-07-22T11:23:40.496Z,41.31
2023-07-22T11:26:08.512Z,41.77
2023-07-22T11:28:36.587Z,41.67
2023-07-22T11:31:04.669Z,40.90
2023-07-22T11:33:40.986Z,39.56
2023-07-22T11:36:09.064Z,38.90
2023-07-22T11:38:39.948Z,39.45
2023-07-22T11:41:08.118Z,40.07
2023-07-22T11:43:36.794Z,40.51
2023-07-22T11:46:07.498Z,41.14
2023-07-22T11:48:35.645Z,40.85
2023-07-22T11:51:03.949Z,41.56
2023-07-22T11:53:31.966Z,41.70
2023-07-22T11:56:02.153Z,41.05
2023-07-22T11:58:31.529Z,40.58
2023-07-22T12:01:08.836Z,40.22
2023-07-22T12:03:37.192Z,39.31
2023-07-22T12:06:05.768Z,38.51
2023-07-22T12:08:34.598Z,39.42
2023-07-22T12:11:05.229Z,39.49
2023-07-22T12:13:38.741Z,39.20
2023-07-22T12:16:08.257Z,39.32
2023-07-22T12:18:46.364Z,40.06
2023-07-22T12:21:14.805Z,39.59
2023-07-22T12:23:44.141Z,39.53
2023-07-22T12:26:13.510Z,38.74
2023-07-22T12:28:41.725Z,39.07
2023-07-22T12:31:10.824Z,39.26
2023-07-22T12:33:39.010Z,39.68
2023-07-22T12:36:07.564Z,40.01
2023-07-22T12:38:35.779Z,39.45
2023-07-22T12:41:04.286Z,38.85
2023-07-22T12:43:34.611Z,39.76
2023-07-22T12:46:02.669Z,40.26
2023-07-22T12:48:31.512Z,40.44
2023-07-22T12:50:59.735Z,40.63
2023-07-22T12:53:28.564Z,40.50
2023-07-22T12:55:57.771Z,39.90
2023-07-22T12:58:25.956Z,39.62
2023-07-22T13:00:55.461Z,39.69
2023-07-22T13:03:23.676Z,39.64
2023-07-22T13:05:51.765Z,39.24
2023-07-22T13:08:19.785Z,39.49
2023-07-22T13:10:48.489Z,39.35
2023-07-22T13:13:16.638Z,38.55
2023-07-22T13:15:44.710Z,39.49
2023-07-22T13:18:14.914Z,39.21
2023-07-22T13:20:43.076Z,39.72
2023-07-22T13:23:11.297Z,39.66
2023-07-22T13:25:39.406Z,40.28
2023-07-22T13:28:10.279Z,40.08
2023-07-22T13:30:38.396Z,40.29
2023-07-22T13:33:06.481Z,40.30
2023-07-22T13:35:35.919Z,39.50
2023-07-22T13:38:03.991Z,39.59
2023-07-22T13:40:32.101Z,41.03
2023-07-22T13:43:00.231Z,41.09
2023-07-22T13:45:28.844Z,40.43
2023-07-22T13:47:57.029Z,39.92
2023-07-22T13:50:25.228Z,38.52
2023-07-22T13:52:54.715Z,37.84
2023-07-22T13:55:22.917Z,38.12
2023-07-22T13:57:50.920Z,38.19
2023-07-22T14:00:19.497Z,37.71
2023-07-22T14:02:47.727Z,38.05
2023-07-22T14:05:15.811Z,37.89
2023-07-22T14:07:43.824Z,37.83
2023-07-22T14:10:13.621Z,37.90
2023-07-22T14:12:41.683Z,38.11
2023-07-22T14:15:11.384Z,38.06
2023-07-22T14:17:40.134Z,37.87
2023-07-22T14:20:09.242Z,37.85
2023-07-22T14:22:37.302Z,37.81
2023-07-22T14:25:06.043Z,37.70
2023-07-22T14:27:36.093Z,37.46
2023-07-22T14:30:05.318Z,37.60
2023-07-22T14:32:33.558Z,37.64
2023-07-22T14:35:01.728Z,37.93
2023-07-22T14:37:30.207Z,37.75
2023-07-22T14:39:58.243Z,38.07
2023-07-22T14:42:26.322Z,38.12
2023-07-22T14:44:55.787Z,38.22
2023-07-22T14:47:23.901Z,37.94
2023-07-22T14:49:53.494Z,38.15
2023-07-22T14:52:21.884Z,38.06
2023-07-22T14:54:50.258Z,38.07
2023-07-22T14:57:19.397Z,38.02
2023-07-22T14:59:49.753Z,37.88
2023-07-22T15:02:19.354Z,37.68
2023-07-22T15:04:47.349Z,37.48
2023-07-22T15:07:15.510Z,37.56
2023-07-22T15:09:43.588Z,37.29
2023-07-22T15:12:11.662Z,37.35
2023-07-22T15:14:41.914Z,37.28
2023-07-22T15:19:58.498Z,37.47
2023-07-22T15:22:32.829Z,37.17
2023-07-22T15:25:03.595Z,37.22
2023-07-22T15:27:31.598Z,37.16
2023-07-22T15:29:59.630Z,37.21
2023-07-22T15:32:28.309Z,37.25
2023-07-22T15:34:57.783Z,37.19
2023-07-22T15:37:26.047Z,37.13
2023-07-22T15:39:54.198Z,37.42
2023-07-22T15:42:22.214Z,37.32
2023-07-22T15:44:50.325Z,37.15
2023-07-22T15:47:18.808Z,37.15
2023-07-22T15:49:47.016Z,37.04
2023-07-22T15:52:16.396Z,37.03
2023-07-22T15:54:47.571Z,37.01
2023-07-22T15:57:17.986Z,36.88
2023-07-22T15:59:47.967Z,36.76
2023-07-22T16:02:16.446Z,36.34
2023-07-22T16:04:44.809Z,36.48
2023-07-22T16:07:12.868Z,36.36
2023-07-22T16:09:42.529Z,36.30
2023-07-22T16:12:11.220Z,36.17
2023-07-22T16:14:39.510Z,36.17
2023-07-22T16:17:07.911Z,36.07
2023-07-22T16:19:36.122Z,36.00
2023-07-22T16:22:04.296Z,36.04
2023-07-22T16:24:32.445Z,35.87
2023-07-22T16:27:02.237Z,35.83
2023-07-22T16:29:30.238Z,35.79
2023-07-22T16:31:58.343Z,35.66
2023-07-22T16:34:26.587Z,35.74
2023-07-22T16:36:54.679Z,35.61
2023-07-22T16:39:24.052Z,35.70
2023-07-22T16:41:52.458Z,35.37
2023-07-22T16:44:23.690Z,34.93
2023-07-22T16:46:51.791Z,34.73
2023-07-22T16:49:19.864Z,34.73
2023-07-22T16:51:48.337Z,34.43
2023-07-22T16:54:16.410Z,34.02
2023-07-22T16:56:44.482Z,34.17
2023-07-22T16:59:14.167Z,34.14
2023-07-22T17:01:43.720Z,33.83
2023-07-22T17:04:12.217Z,33.94
2023-07-22T17:06:40.809Z,33.92
2023-07-22T17:09:09.334Z,34.06
2023-07-22T17:11:37.389Z,33.39
2023-07-22T17:14:05.471Z,33.83
2023-07-22T17:16:33.484Z,33.81
2023-07-22T17:19:03.153Z,33.60
2023-07-22T17:21:31.705Z,33.64
2023-07-22T17:23:59.668Z,33.60
2023-07-22T17:26:27.714Z,33.61
2023-07-22T17:28:55.824Z,33.60
2023-07-22T17:31:24.196Z,33.32
2023-07-22T17:33:52.308Z,33.42
2023-07-22T17:36:21.775Z,33.31
2023-07-22T17:38:49.977Z,33.23
2023-07-22T17:41:18.211Z,33.12
2023-07-22T17:43:46.211Z,33.25
2023-07-22T17:46:14.456Z,33.08
2023-07-22T17:48:42.475Z,33.17
2023-07-22T17:51:10.440Z,33.16
2023-07-22T17:53:40.250Z,33.19
2023-07-22T17:56:08.370Z,33.17
2023-07-22T17:58:36.356Z,33.10
2023-07-22T18:01:04.719Z,32.90
2023-07-22T18:03:33.279Z,32.76
2023-07-22T18:06:01.301Z,32.48
2023-07-22T18:08:29.304Z,32.35
2023-07-22T18:10:59.006Z,32.22
2023-07-22T18:13:27.076Z,31.97
2023-07-22T18:15:55.111Z,31.67
2023-07-22T18:18:23.300Z,31.55
2023-07-22T18:20:51.276Z,31.54
2023-07-22T18:23:19.271Z,31.53
2023-07-22T18:25:47.225Z,31.04
2023-07-22T18:28:16.599Z,31.43
2023-07-22T18:30:44.638Z,31.26
2023-07-22T18:33:12.761Z,31.36
2023-07-22T18:35:40.854Z,31.28
2023-07-22T18:38:09.225Z,31.14
2023-07-22T18:40:37.242Z,31.16
2023-07-22T18:43:05.400Z,31.00
2023-07-22T18:45:34.867Z,30.76
2023-07-22T18:48:03.937Z,30.59
2023-07-22T18:50:33.692Z,29.99
2023-07-22T18:53:01.737Z,30.63
2023-07-22T18:55:29.781Z,30.68
2023-07-22T18:57:57.846Z,30.76
2023-07-22T19:00:28.299Z,30.77
2023-07-22T19:02:58.612Z,30.54
2023-07-22T19:05:26.716Z,30.32
2023-07-22T19:07:54.879Z,30.48
2023-07-22T19:10:22.953Z,30.44
2023-07-22T19:12:51.015Z,30.42
2023-07-22T19:15:21.132Z,30.41
2023-07-22T19:17:49.461Z,30.46
2023-07-22T19:20:19.211Z,30.45
2023-07-22T19:22:47.462Z,30.25
2023-07-22T19:25:15.617Z,30.31
2023-07-22T19:27:43.745Z,30.20
2023-07-22T19:30:14.361Z,30.04
2023-07-22T19:32:42.469Z,30.14
2023-07-22T19:35:10.853Z,30.11
2023-07-22T19:37:40.295Z,30.17
2023-07-22T19:40:10.055Z,30.07
2023-07-22T19:42:38.048Z,30.11
2023-07-22T19:45:06.953Z,30.07
2023-07-22T19:47:35.279Z,29.89
2023-07-22T19:50:03.466Z,29.97
2023-07-22T19:52:31.498Z,29.94
2023-07-22T19:55:00.896Z,29.83
2023-07-22T19:57:28.986Z,29.81
2023-07-22T19:59:57.786Z,29.73
2023-07-22T20:02:26.030Z,29.77
2023-07-22T20:04:54.317Z,29.75
2023-07-22T20:07:22.350Z,29.69
2023-07-22T20:09:50.373Z,29.48
2023-07-22T20:12:19.762Z,29.54
2023-07-22T20:14:47.862Z,29.54
2023-07-22T20:17:15.884Z,29.21
2023-07-22T20:19:43.940Z,29.41
2023-07-22T20:22:12.449Z,29.10
2023-07-22T20:24:40.763Z,29.37
2023-07-22T20:27:08.860Z,29.32
2023-07-22T20:29:38.322Z,29.24
2023-07-22T20:32:12.493Z,29.35
2023-07-22T20:34:47.584Z,29.17
2023-07-22T20:37:15.613Z,29.01
2023-07-22T20:39:43.620Z,28.99
2023-07-22T20:42:11.693Z,29.05
2023-07-22T20:44:41.071Z,28.79
2023-07-22T20:47:09.148Z,28.74
2023-07-22T20:49:37.190Z,28.21
2023-07-22T20:52:05.875Z,28.69
2023-07-22T20:54:33.991Z,28.66
2023-07-22T20:57:02.017Z,28.50
2023-07-22T20:59:29.961Z,28.58
2023-07-22T21:01:59.407Z,28.59
2023-07-22T21:04:27.432Z,28.54
2023-07-22T21:06:55.422Z,28.45
2023-07-22T21:09:23.437Z,28.41
2023-07-22T21:11:51.435Z,28.41
2023-07-22T21:14:19.428Z,28.48
2023-07-22T21:16:47.472Z,28.60
2023-07-22T21:19:16.882Z,28.58
2023-07-22T21:21:46.179Z,28.55
2023-07-22T21:24:14.615Z,28.41
2023-07-22T21:26:42.642Z,28.43
2023-07-22T21:29:10.608Z,28.38
2023-07-22T21:31:38.616Z,28.32
2023-07-22T21:34:15.111Z,28.14
2023-07-22T21:36:45.104Z,28.31
2023-07-22T21:39:13.131Z,28.31
2023-07-22T21:41:41.398Z,28.23
2023-07-22T21:44:09.597Z,28.11
2023-07-22T21:46:40.286Z,27.98
2023-07-22T21:49:09.487Z,28.07
2023-07-22T21:51:39.193Z,28.07
2023-07-22T21:54:08.597Z,28.00
2023-07-22T21:56:36.698Z,27.94
2023-07-22T21:59:04.793Z,27.96
2023-07-22T22:01:32.943Z,28.06
2023-07-22T22:04:01.006Z,27.75
2023-07-22T22:06:28.973Z,27.86
2023-07-22T22:08:57.106Z,27.62
2023-07-22T22:11:26.735Z,27.86
2023-07-22T22:13:54.933Z,27.82
2023-07-22T22:16:22.991Z,27.96
2023-07-22T22:18:51.027Z,27.92
2023-07-22T22:21:19.036Z,27.85
2023-07-22T22:23:47.026Z,28.00
2023-07-22T22:26:15.119Z,27.98
2023-07-22T22:28:44.475Z,27.90
2023-07-22T22:31:12.595Z,27.80
2023-07-22T22:33:40.644Z,27.70
2023-07-22T22:36:08.797Z,27.62
2023-07-22T22:38:36.844Z,27.66
2023-07-22T22:41:05.096Z,27.64
2023-07-22T22:43:33.183Z,27.63
2023-07-22T22:46:02.499Z,27.51
2023-07-22T22:48:30.482Z,27.51
2023-07-22T22:50:58.485Z,27.32
2023-07-22T22:53:26.492Z,27.25
2023-07-22T22:55:54.485Z,27.01
2023-07-22T22:58:22.866Z,26.96
2023-07-22T23:00:50.881Z,26.74
2023-07-22T23:03:20.328Z,27.03
2023-07-22T23:05:48.369Z,27.11
2023-07-22T23:08:16.477Z,26.82
2023-07-22T23:10:47.513Z,26.63
2023-07-22T23:13:15.579Z,26.70
2023-07-22T23:15:43.778Z,26.52
2023-07-22T23:18:11.774Z,26.53
2023-07-22T23:20:41.155Z,26.54
2023-07-22T23:23:09.175Z,26.67
2023-07-22T23:25:37.195Z,26.77
2023-07-22T23:28:05.267Z,26.64
2023-07-22T23:30:33.211Z,26.42
2023-07-22T23:33:01.243Z,26.17
2023-07-22T23:35:29.239Z,25.94
2023-07-22T23:37:58.736Z,26.04
2023-07-22T23:40:26.714Z,26.18
2023-07-22T23:42:54.814Z,25.84
2023-07-22T23:45:22.765Z,26.03
2023-07-22T23:47:50.908Z,25.90
2023-07-22T23:50:19.065Z,25.91
2023-07-22T23:52:47.066Z,25.93
2023-07-22T23:55:16.612Z,25.89
2023-07-22T23:57:44.615Z,25.79
